createdAt,value
2019-02-10T00:00:14.950Z,81.34
2019-02-10T00:02:40.826Z,81.36
2019-02-10T00:05:07.001Z,81.25
2019-02-10T00:07:33.290Z,81.36
2019-02-10T00:09:59.106Z,81.56
2019-02-10T00:12:24.946Z,81.51
2019-02-10T00:14:50.767Z,81.78
2019-02-10T00:17:16.789Z,82.00
2019-02-10T00:19:42.624Z,82.22
2019-02-10T00:22:11.372Z,82.41
2019-02-10T00:24:37.292Z,82.52
2019-02-10T00:27:07.096Z,82.74
2019-02-10T00:29:33.257Z,83.13
2019-02-10T00:32:02.725Z,83.29
2019-02-10T00:34:28.825Z,83.57
2019-02-10T00:36:58.013Z,83.74
2019-02-10T00:39:24.119Z,84.41
2019-02-10T00:41:52.998Z,84.71
2019-02-10T00:44:19.098Z,84.80
2019-02-10T00:46:45.182Z,84.87
2019-02-10T00:49:11.017Z,84.94
2019-02-10T00:51:36.982Z,85.04
2019-02-10T00:54:02.980Z,84.90
2019-02-10T00:56:28.861Z,84.84
2019-02-10T00:58:57.486Z,84.88
2019-02-10T01:01:23.300Z,85.10
2019-02-10T01:03:52.251Z,85.50
2019-02-10T01:06:18.324Z,85.73
2019-02-10T01:08:47.258Z,85.61
2019-02-10T01:11:13.393Z,85.69
2019-02-10T01:13:40.783Z,85.57
2019-02-10T01:16:06.597Z,85.45
2019-02-10T01:18:37.215Z,85.19
2019-02-10T01:21:03.122Z,85.41
2019-02-10T01:23:28.932Z,85.48
2019-02-10T01:25:54.787Z,85.54
2019-02-10T01:28:20.632Z,85.47
2019-02-10T01:30:48.030Z,85.23
2019-02-10T01:33:14.100Z,85.04
2019-02-10T01:35:42.728Z,84.41
2019-02-10T01:38:08.567Z,84.43
2019-02-10T01:40:39.065Z,84.56
2019-02-10T01:43:05.866Z,84.30
2019-02-10T01:45:31.996Z,84.13
2019-02-10T01:47:57.802Z,84.38
2019-02-10T01:50:27.246Z,84.22
2019-02-10T01:52:53.072Z,83.84
2019-02-10T01:55:21.819Z,83.84
2019-02-10T01:57:47.647Z,83.83
2019-02-10T02:00:16.621Z,83.80
2019-02-10T02:02:42.435Z,83.94
2019-02-10T02:05:08.371Z,84.10
2019-02-10T02:07:34.455Z,84.11
2019-02-10T02:10:00.320Z,84.05
2019-02-10T02:12:29.108Z,83.96
2019-02-10T02:14:55.145Z,84.00
2019-02-10T02:17:24.065Z,83.98
2019-02-10T02:19:49.907Z,83.68
2019-02-10T02:22:17.082Z,83.37
2019-02-10T02:24:43.197Z,83.18
2019-02-10T02:27:13.782Z,83.00
2019-02-10T02:29:39.632Z,83.01
2019-02-10T02:32:08.467Z,83.24
2019-02-10T02:34:34.575Z,83.09
2019-02-10T02:37:07.602Z,82.85
2019-02-10T02:39:28.252Z,82.93
2019-02-10T02:41:54.139Z,83.00
2019-02-10T02:44:20.269Z,83.00
2019-02-10T02:46:46.133Z,82.74
2019-02-10T02:52:40.772Z,81.68
2019-02-10T02:55:08.020Z,81.52
2019-02-10T02:57:33.833Z,80.73
2019-02-10T02:59:59.674Z,80.31
2019-02-10T03:02:25.514Z,80.19
2019-02-10T03:04:51.403Z,79.80
2019-02-10T03:07:18.254Z,79.53
2019-02-10T03:09:44.537Z,79.06
2019-02-10T03:12:10.678Z,78.60
2019-02-10T03:14:36.513Z,78.73
2019-02-10T03:17:02.372Z,78.56
2019-02-10T03:19:28.473Z,78.71
2019-02-10T03:21:54.321Z,78.81
2019-02-10T03:24:20.434Z,79.03
2019-02-10T03:26:46.263Z,79.23
2019-02-10T03:29:12.077Z,79.79
2019-02-10T03:31:37.922Z,80.37
2019-02-10T03:34:03.737Z,80.99
2019-02-10T03:36:29.870Z,81.29
2019-02-10T03:38:55.704Z,81.46
2019-02-10T03:41:21.550Z,81.51
2019-02-10T03:43:47.500Z,81.63
2019-02-10T03:46:13.616Z,81.53
2019-02-10T03:48:39.734Z,81.46
2019-02-10T03:51:05.876Z,81.37
2019-02-10T03:53:31.977Z,81.45
2019-02-10T03:55:58.150Z,81.31
2019-02-10T03:58:24.200Z,81.29
2019-02-10T04:00:50.032Z,81.00
2019-02-10T04:03:15.877Z,81.01
2019-02-10T04:05:41.696Z,80.80
2019-02-10T04:08:07.653Z,80.76
2019-02-10T04:10:33.473Z,80.80
2019-02-10T04:12:59.315Z,81.04
2019-02-10T04:15:25.262Z,81.07
2019-02-10T04:17:51.076Z,80.81
2019-02-10T04:20:16.969Z,80.52
2019-02-10T04:22:43.224Z,80.45
2019-02-10T04:25:09.062Z,80.38
2019-02-10T04:27:34.889Z,80.22
2019-02-10T04:30:01.264Z,80.11
2019-02-10T04:32:27.360Z,79.71
2019-02-10T04:34:53.496Z,79.54
2019-02-10T04:37:19.345Z,79.43
2019-02-10T04:39:45.240Z,79.26
2019-02-10T04:42:11.087Z,79.34
2019-02-10T04:44:36.935Z,79.67
2019-02-10T04:47:03.070Z,79.99
2019-02-10T04:49:28.881Z,79.79
2019-02-10T04:51:55.032Z,79.44
2019-02-10T04:54:20.879Z,78.93
2019-02-10T04:56:46.698Z,78.45
2019-02-10T04:59:12.569Z,78.25
2019-02-10T05:01:38.448Z,78.29
2019-02-10T05:04:04.298Z,78.17
2019-02-10T05:06:30.121Z,78.24
2019-02-10T05:08:55.973Z,77.67
2019-02-10T05:11:21.794Z,77.12
2019-02-10T05:13:47.605Z,76.29
2019-02-10T05:16:16.472Z,76.29
2019-02-10T05:18:42.323Z,76.22
2019-02-10T05:21:11.034Z,76.04
2019-02-10T05:23:37.130Z,76.26
2019-02-10T05:26:04.216Z,76.25
2019-02-10T05:28:30.310Z,76.42
2019-02-10T05:30:58.324Z,76.57
2019-02-10T05:33:24.134Z,76.73
2019-02-10T05:35:53.423Z,76.98
2019-02-10T05:38:19.257Z,76.74
2019-02-10T05:40:45.367Z,76.65
2019-02-10T05:43:11.235Z,76.41
2019-02-10T05:45:37.128Z,76.38
2019-02-10T05:48:06.283Z,76.40
2019-02-10T05:50:32.151Z,76.80
2019-02-10T05:53:01.014Z,76.90
2019-02-10T05:55:26.967Z,76.93
2019-02-10T05:57:55.807Z,76.85
2019-02-10T06:00:21.661Z,76.69
2019-02-10T06:02:48.926Z,76.71
2019-02-10T06:05:39.803Z,76.79
2019-02-10T06:08:12.998Z,76.58
2019-02-10T06:10:33.654Z,76.66
2019-02-10T06:12:59.485Z,76.64
2019-02-10T06:15:25.315Z,77.00
2019-02-10T06:17:51.174Z,77.08
2019-02-10T06:20:17.029Z,77.14
2019-02-10T06:22:43.026Z,77.30
2019-02-10T06:25:09.098Z,77.10
2019-02-10T06:27:35.201Z,77.09
2019-02-10T06:30:01.258Z,76.96
2019-02-10T06:32:27.073Z,76.87
2019-02-10T06:34:52.987Z,76.54
2019-02-10T06:37:19.078Z,76.54
2019-02-10T06:39:44.902Z,76.39
2019-02-10T06:42:10.826Z,76.39
2019-02-10T06:44:37.028Z,76.45
2019-02-10T06:47:02.827Z,76.70
2019-02-10T06:49:28.701Z,76.84
2019-02-10T06:51:54.522Z,77.13
2019-02-10T06:54:20.655Z,77.00
2019-02-10T06:56:46.474Z,77.20
2019-02-10T06:59:14.216Z,77.64
2019-02-10T07:01:44.466Z,77.31
2019-02-10T07:04:13.329Z,77.78
2019-02-10T07:06:39.424Z,77.36
2019-02-10T07:09:05.484Z,77.07
2019-02-10T07:11:31.362Z,76.87
2019-02-10T07:13:57.762Z,77.10
2019-02-10T07:16:33.221Z,77.49
2019-02-10T07:19:36.868Z,77.15
2019-02-10T07:22:33.452Z,77.38
2019-02-10T07:25:12.221Z,77.64
2019-02-10T07:27:41.448Z,77.51
2019-02-10T07:30:11.117Z,77.36
2019-02-10T07:32:46.108Z,77.63
2019-02-10T07:35:27.438Z,77.16
2019-02-10T07:37:57.159Z,76.48
2019-02-10T07:40:26.814Z,76.24
2019-02-10T07:42:58.990Z,76.23
2019-02-10T07:45:31.744Z,75.66
2019-02-10T07:48:13.103Z,75.72
2019-02-10T07:51:01.037Z,75.38
2019-02-10T07:53:30.673Z,75.61
2019-02-10T07:56:15.059Z,75.41
2019-02-10T07:58:47.412Z,74.16
2019-02-10T08:01:37.270Z,73.71
2019-02-10T08:04:26.791Z,72.92
2019-02-10T08:07:14.913Z,72.95
2019-02-10T08:10:02.521Z,72.28
2019-02-10T08:12:58.237Z,72.03
2019-02-10T08:15:27.881Z,71.78
2019-02-10T08:18:13.298Z,70.93
2019-02-10T08:20:46.209Z,70.77
2019-02-10T08:23:19.112Z,70.53
2019-02-10T08:25:55.229Z,70.38
2019-02-10T08:28:41.564Z,69.87
2019-02-10T08:31:32.718Z,69.48
2019-02-10T08:34:08.606Z,68.94
2019-02-10T08:36:52.921Z,68.67
2019-02-10T08:39:31.655Z,68.76
2019-02-10T08:42:16.773Z,68.23
2019-02-10T08:45:03.401Z,68.99
2019-02-10T08:47:42.304Z,68.88
2019-02-10T08:50:15.197Z,68.34
2019-02-10T08:52:51.969Z,68.09
2019-02-10T08:55:15.367Z,67.76
2019-02-10T08:57:41.500Z,67.56
2019-02-10T09:00:10.105Z,67.04
2019-02-10T09:02:35.938Z,66.19
2019-02-10T09:05:01.808Z,65.19
2019-02-10T09:07:27.930Z,65.19
2019-02-10T09:09:53.776Z,64.46
2019-02-10T09:12:20.289Z,63.57
2019-02-10T09:14:46.133Z,63.13
2019-02-10T09:17:12.270Z,62.91
2019-02-10T09:19:38.214Z,61.65
2019-02-10T09:22:04.051Z,59.48
2019-02-10T09:24:29.866Z,57.45
2019-02-10T09:26:55.997Z,55.16
2019-02-10T09:29:21.813Z,53.84
2019-02-10T09:31:47.941Z,53.26
2019-02-10T09:34:13.768Z,53.42
2019-02-10T09:36:39.881Z,52.80
2019-02-10T09:39:10.825Z,51.19
2019-02-10T09:41:33.692Z,50.17
2019-02-10T09:43:59.745Z,50.17
2019-02-10T09:46:25.610Z,49.66
2019-02-10T09:48:51.695Z,48.78
2019-02-10T09:51:17.513Z,49.33
2019-02-10T09:53:43.348Z,48.63
2019-02-10T09:56:10.675Z,48.24
2019-02-10T09:58:36.702Z,47.63
2019-02-10T10:01:02.641Z,47.96
2019-02-10T10:03:28.513Z,48.38
2019-02-10T10:05:54.338Z,48.60
2019-02-10T10:08:20.140Z,47.72
2019-02-10T10:10:45.977Z,48.75
2019-02-10T10:13:11.795Z,48.61
2019-02-10T10:15:37.916Z,49.66
2019-02-10T10:18:03.766Z,51.03
2019-02-10T10:20:29.613Z,51.13
2019-02-10T10:22:55.707Z,50.54
2019-02-10T10:25:21.554Z,48.81
2019-02-10T10:27:47.663Z,48.47
2019-02-10T10:30:16.522Z,48.88
2019-02-10T10:32:42.647Z,48.94
2019-02-10T10:35:08.891Z,49.02
2019-02-10T10:37:34.746Z,49.00
2019-02-10T10:40:00.590Z,48.95
2019-02-10T10:42:26.428Z,48.32
2019-02-10T10:44:52.223Z,47.89
2019-02-10T10:47:18.079Z,48.24
2019-02-10T10:49:44.020Z,48.34
2019-02-10T10:52:09.881Z,48.34
2019-02-10T10:54:42.615Z,48.04
2019-02-10T10:57:03.401Z,49.39
2019-02-10T10:59:29.239Z,50.79
2019-02-10T11:01:55.058Z,51.55
2019-02-10T11:04:20.913Z,51.16
2019-02-10T11:06:46.759Z,49.48
2019-02-10T11:09:12.629Z,47.75
2019-02-10T11:11:38.599Z,47.06
2019-02-10T11:14:04.702Z,47.84
2019-02-10T11:16:30.552Z,47.32
2019-02-10T11:18:56.694Z,47.95
2019-02-10T11:21:22.590Z,48.53
2019-02-10T11:23:48.394Z,48.82
2019-02-10T11:26:14.481Z,48.80
2019-02-10T11:28:43.335Z,48.32
2019-02-10T11:31:09.415Z,49.63
2019-02-10T11:33:38.256Z,49.25
2019-02-10T11:36:04.352Z,50.32
2019-02-10T11:38:33.594Z,51.39
2019-02-10T11:40:59.660Z,52.64
2019-02-10T11:43:28.773Z,52.96
2019-02-10T11:45:54.867Z,53.17
2019-02-10T11:48:20.970Z,53.55
2019-02-10T11:50:46.822Z,54.15
2019-02-10T11:53:12.675Z,54.33
2019-02-10T11:55:38.654Z,54.43
2019-02-10T11:58:04.475Z,54.99
2019-02-10T12:00:33.361Z,55.03
2019-02-10T12:02:59.543Z,55.61
2019-02-10T12:05:28.497Z,56.46
2019-02-10T12:07:54.392Z,58.48
2019-02-10T12:10:23.020Z,59.45
2019-02-10T12:12:48.863Z,59.53
2019-02-10T12:15:17.464Z,60.22
2019-02-10T12:17:43.368Z,59.63
2019-02-10T12:20:14.609Z,59.69
2019-02-10T12:22:40.963Z,61.28
2019-02-10T12:25:08.488Z,63.15
2019-02-10T12:27:34.334Z,65.66
2019-02-10T12:30:00.858Z,67.31
2019-02-10T12:32:27.171Z,69.99
2019-02-10T12:34:53.050Z,72.39
2019-02-10T12:37:18.854Z,72.20
2019-02-10T12:39:44.946Z,74.24
2019-02-10T12:42:13.904Z,75.58
2019-02-10T12:44:40.003Z,74.45
2019-02-10T12:47:08.680Z,75.42
2019-02-10T12:49:34.637Z,77.83
2019-02-10T12:52:03.669Z,78.60
2019-02-10T12:54:29.476Z,81.36
2019-02-10T12:56:58.367Z,82.39
2019-02-10T12:59:24.175Z,84.38
2019-02-10T13:01:50.313Z,84.18
2019-02-10T13:04:16.412Z,85.54
2019-02-10T13:06:42.350Z,88.02
2019-02-10T13:09:12.106Z,89.10
2019-02-10T13:11:38.029Z,90.29
2019-02-10T13:14:03.987Z,90.76
2019-02-10T13:16:29.778Z,91.29
2019-02-10T13:18:58.696Z,92.71
2019-02-10T13:21:24.539Z,93.56
2019-02-10T13:23:54.994Z,93.23
2019-02-10T13:26:20.820Z,94.51
2019-02-10T13:28:52.825Z,95.49
2019-02-10T13:31:18.894Z,94.90
2019-02-10T13:33:44.749Z,96.29
2019-02-10T13:36:10.683Z,95.22
2019-02-10T13:38:36.597Z,95.25
2019-02-10T13:41:02.750Z,94.54
2019-02-10T13:43:33.482Z,94.37
2019-02-10T13:45:56.276Z,94.52
2019-02-10T13:48:22.144Z,94.12
2019-02-10T13:50:49.466Z,93.96
2019-02-10T13:53:15.336Z,95.05
2019-02-10T13:55:45.855Z,94.71
2019-02-10T13:58:11.664Z,95.06
2019-02-10T14:00:40.303Z,95.05
2019-02-10T14:03:06.079Z,94.82
2019-02-10T14:05:32.943Z,95.23
2019-02-10T14:07:58.754Z,95.53
2019-02-10T14:10:27.532Z,94.51
2019-02-10T14:12:55.251Z,95.21
2019-02-10T14:15:21.119Z,95.95
2019-02-10T14:17:46.941Z,96.09
2019-02-10T14:20:15.355Z,96.38
2019-02-10T14:22:41.735Z,97.56
2019-02-10T14:25:08.032Z,97.52
2019-02-10T14:27:36.641Z,98.33
2019-02-10T14:30:05.492Z,99.05
2019-02-10T14:32:31.343Z,99.52
2019-02-10T14:34:57.441Z,99.97
2019-02-10T14:37:24.349Z,100.00
2019-02-10T14:39:50.482Z,99.55
2019-02-10T14:42:19.067Z,100.00
2019-02-10T14:44:45.174Z,100.00
2019-02-10T14:47:13.858Z,99.70
2019-02-10T14:49:39.695Z,100.00
2019-02-10T14:52:05.848Z,98.97
2019-02-10T14:54:31.711Z,98.68
2019-02-10T14:56:57.499Z,99.17
2019-02-10T14:59:26.562Z,99.37
2019-02-10T15:01:52.672Z,99.94
2019-02-10T15:04:20.365Z,97.96
2019-02-10T15:06:46.191Z,98.09
2019-02-10T15:09:15.080Z,97.74
2019-02-10T15:11:40.911Z,98.73
2019-02-10T15:14:09.674Z,98.42
2019-02-10T15:16:35.496Z,98.78
2019-02-10T15:19:04.636Z,98.77
2019-02-10T15:21:30.745Z,98.85
2019-02-10T15:23:59.557Z,99.67
2019-02-10T15:26:25.354Z,98.77
2019-02-10T15:28:51.443Z,98.94
2019-02-10T15:31:17.285Z,98.24
2019-02-10T15:33:43.385Z,96.94
2019-02-10T15:36:12.550Z,97.71
2019-02-10T15:38:38.378Z,96.24
2019-02-10T15:41:07.496Z,97.27
2019-02-10T15:43:33.297Z,97.78
2019-02-10T15:46:02.368Z,97.61
2019-02-10T15:48:28.269Z,98.52
2019-02-10T15:50:54.328Z,98.76
2019-02-10T15:53:20.174Z,99.36
2019-02-10T15:55:48.866Z,100.00
2019-02-10T15:58:14.985Z,100.00
2019-02-10T16:00:45.719Z,100.00
2019-02-10T16:03:11.610Z,99.69
2019-02-10T16:05:37.510Z,100.00
2019-02-10T16:08:03.420Z,100.00
2019-02-10T16:10:29.244Z,100.00
2019-02-10T16:12:58.063Z,100.00
2019-02-10T16:15:23.903Z,100.00
2019-02-10T16:17:52.845Z,100.00
2019-02-10T16:20:18.836Z,100.00
2019-02-10T16:22:48.216Z,100.00
2019-02-10T16:25:14.343Z,100.00
2019-02-10T16:27:40.172Z,99.55
2019-02-10T16:30:11.972Z,98.28
2019-02-10T16:32:38.087Z,98.79
2019-02-10T16:35:05.394Z,100.00
2019-02-10T16:37:31.246Z,100.00
2019-02-10T16:39:57.075Z,97.32
2019-02-10T16:42:22.920Z,98.71
2019-02-10T16:44:48.762Z,99.83
2019-02-10T16:47:14.591Z,100.00
2019-02-10T16:49:41.165Z,98.82
2019-02-10T16:52:07.247Z,99.37
2019-02-10T16:54:36.203Z,99.32
2019-02-10T16:57:02.038Z,99.57
2019-02-10T16:59:30.759Z,100.00
2019-02-10T17:01:56.573Z,100.00
2019-02-10T17:04:25.139Z,100.00
2019-02-10T17:06:51.283Z,100.00
2019-02-10T17:09:19.969Z,100.00
2019-02-10T17:11:45.823Z,100.00
2019-02-10T17:14:16.121Z,100.00
2019-02-10T17:16:41.941Z,100.00
2019-02-10T17:19:07.808Z,100.00
2019-02-10T17:21:33.634Z,100.00
2019-02-10T17:23:59.492Z,100.00
2019-02-10T17:26:28.094Z,100.00
2019-02-10T17:28:53.914Z,100.00
2019-02-10T17:31:21.148Z,100.00
2019-02-10T17:33:47.245Z,100.00
2019-02-10T17:36:17.987Z,100.00
2019-02-10T17:38:43.873Z,99.22
2019-02-10T17:41:22.622Z,98.58
2019-02-10T17:43:43.635Z,98.79
2019-02-10T17:46:09.722Z,97.97
2019-02-10T17:48:35.857Z,96.98
2019-02-10T17:51:01.717Z,96.83
2019-02-10T17:53:27.540Z,95.64
2019-02-10T17:55:53.701Z,95.61
2019-02-10T17:58:19.552Z,95.14
2019-02-10T18:00:47.305Z,94.49
2019-02-10T18:03:13.416Z,95.62
2019-02-10T18:05:39.542Z,95.54
2019-02-10T18:08:08.430Z,94.63
2019-02-10T18:10:34.351Z,94.49
2019-02-10T18:13:02.953Z,93.06
2019-02-10T18:15:30.704Z,91.25
2019-02-10T18:17:58.742Z,90.19
2019-02-10T18:23:03.169Z,89.85
2019-02-10T18:25:33.750Z,87.92
2019-02-10T18:28:10.824Z,87.57
2019-02-10T18:30:55.586Z,87.42
2019-02-10T18:33:26.304Z,86.73
2019-02-10T18:35:54.342Z,87.10
2019-02-10T18:38:37.529Z,87.41
2019-02-10T18:41:08.072Z,86.80
2019-02-10T18:43:35.820Z,86.49
2019-02-10T18:46:04.662Z,85.50
2019-02-10T18:48:41.681Z,85.13
2019-02-10T18:51:09.725Z,85.97
2019-02-10T18:53:46.376Z,85.87
2019-02-10T18:56:16.900Z,86.28
2019-02-10T18:58:44.632Z,86.46
2019-02-10T19:01:15.694Z,85.06
2019-02-10T19:03:55.377Z,83.76
2019-02-10T19:06:32.035Z,83.30
2019-02-10T19:09:19.339Z,83.13
2019-02-10T19:11:49.914Z,82.30
2019-02-10T19:14:23.493Z,82.74
2019-02-10T19:17:08.028Z,81.94
2019-02-10T19:19:39.009Z,82.23
2019-02-10T19:22:06.808Z,82.67
2019-02-10T19:24:34.821Z,82.24
2019-02-10T19:27:05.827Z,81.37
2019-02-10T19:29:33.824Z,81.14
2019-02-10T19:32:18.162Z,81.61
2019-02-10T19:34:51.742Z,81.80
2019-02-10T19:37:36.459Z,82.38
2019-02-10T19:40:18.775Z,81.83
2019-02-10T19:42:55.573Z,81.37
2019-02-10T19:45:23.298Z,82.00
2019-02-10T19:48:00.091Z,82.17
2019-02-10T19:50:28.081Z,82.14
2019-02-10T19:53:13.790Z,82.02
2019-02-10T19:55:49.522Z,81.53
2019-02-10T20:01:08.784Z,81.11
2019-02-10T20:03:36.702Z,82.13
2019-02-10T20:06:04.563Z,81.12
2019-02-10T20:08:44.833Z,81.80
2019-02-10T20:14:07.747Z,84.03
2019-02-10T20:16:41.748Z,86.54
2019-02-10T20:19:26.071Z,88.45
2019-02-10T20:21:53.814Z,91.07
2019-02-10T20:24:24.272Z,92.99
2019-02-10T20:27:08.703Z,93.95
2019-02-10T20:29:48.919Z,94.89
2019-02-10T20:32:19.454Z,96.20
2019-02-10T20:34:49.980Z,97.27
2019-02-10T20:37:17.744Z,98.79
2019-02-10T20:39:48.724Z,99.26
2019-02-10T20:42:33.023Z,99.80
2019-02-10T20:45:00.775Z,100.00
2019-02-10T20:47:37.282Z,100.00
2019-02-10T20:50:23.042Z,100.00
2019-02-10T20:53:08.120Z,100.00
2019-02-10T20:55:45.108Z,100.00
2019-02-10T20:58:12.846Z,100.00
2019-02-10T21:00:40.573Z,100.00
2019-02-10T21:03:16.997Z,100.00
2019-02-10T21:06:00.098Z,100.00
2019-02-10T21:08:30.937Z,100.00
2019-02-10T21:11:13.910Z,100.00
2019-02-10T21:13:41.652Z,100.00
2019-02-10T21:16:27.641Z,100.00
2019-02-10T21:19:14.146Z,100.00
2019-02-10T21:22:03.568Z,100.00
2019-02-10T21:24:46.523Z,100.00
2019-02-10T21:27:14.289Z,100.00
2019-02-10T21:29:44.776Z,100.00
2019-02-10T21:32:18.366Z,100.00
2019-02-10T21:34:46.397Z,99.42
2019-02-10T21:37:14.117Z,99.15
2019-02-10T21:40:00.692Z,99.12
2019-02-10T21:42:29.250Z,97.27
2019-02-10T21:45:01.111Z,96.26
2019-02-10T21:47:28.866Z,97.00
2019-02-10T21:49:54.702Z,97.17
2019-02-10T21:52:22.061Z,96.58
2019-02-10T21:54:48.147Z,97.36
2019-02-10T21:57:13.958Z,97.20
2019-02-10T21:59:39.815Z,97.01
2019-02-10T22:02:05.870Z,97.17
2019-02-10T22:04:34.747Z,96.56
2019-02-10T22:07:00.857Z,97.15
2019-02-10T22:09:29.714Z,97.01
2019-02-10T22:11:55.824Z,96.47
2019-02-10T22:14:22.844Z,96.23
2019-02-10T22:16:48.685Z,95.79
2019-02-10T22:19:17.423Z,95.35
2019-02-10T22:21:43.294Z,94.98
2019-02-10T22:24:12.203Z,95.75
2019-02-10T22:26:38.045Z,95.59
2019-02-10T22:29:11.307Z,95.04
2019-02-10T22:31:37.550Z,94.30
2019-02-10T22:34:03.353Z,93.60
2019-02-10T22:36:29.181Z,93.92
2019-02-10T22:38:55.055Z,93.74
2019-02-10T22:41:20.869Z,93.24
2019-02-10T22:43:47.053Z,93.99
2019-02-10T22:46:16.204Z,94.44
2019-02-10T22:48:42.023Z,94.66
2019-02-10T22:51:11.183Z,94.68
2019-02-10T22:53:37.013Z,95.12
2019-02-10T22:56:02.881Z,94.36
2019-02-10T22:58:29.024Z,94.21
2019-02-10T23:01:00.120Z,93.83
2019-02-10T23:03:25.930Z,94.01
2019-02-10T23:05:54.919Z,94.09
2019-02-10T23:08:20.743Z,93.24
2019-02-10T23:10:46.944Z,92.52
2019-02-10T23:13:13.086Z,92.75
2019-02-10T23:15:38.901Z,92.53
2019-02-10T23:18:05.113Z,90.81
2019-02-10T23:20:30.927Z,90.55
2019-02-10T23:22:59.833Z,90.85
2019-02-10T23:25:25.935Z,90.22
2019-02-10T23:27:54.811Z,89.92
2019-02-10T23:30:20.762Z,89.72
2019-02-10T23:32:49.365Z,88.31
2019-02-10T23:35:15.183Z,88.39
2019-02-10T23:37:43.792Z,88.67
2019-02-10T23:40:09.744Z,89.37
2019-02-10T23:42:38.981Z,89.86
2019-02-10T23:45:05.780Z,90.27
2019-02-10T23:47:31.624Z,91.26
2019-02-10T23:49:57.426Z,91.59
2019-02-10T23:52:23.539Z,91.30
2019-02-10T23:54:49.553Z,91.05
2019-02-10T23:57:15.411Z,89.80
2019-02-10T23:59:44.090Z,90.01
